Atkinson, Illinois
Current Conditions -  °F | °C
As of 7:52 AM on Thursday 29 Jan 2015 (Local Time) from KMLI Reporting Station
Haze Haze  
Wind Chill: 25°   Ceiling: 1700
Heat Index: 35°   Visibility: 6mi
Dew Point: 29°   Wind: 16mph
Humidity: 78%   Direction: 300°WNW
Pressure: 29.95"   Gusts: 23mph
Location:  41.42°N, 90.02°W
Report Text: KMLI 291352Z 30014G20KT 6SM HZ OVC017 02/M02 A2995 RMK AO2 SLP147 T00171017
Loading
Personal Weather Stations






























Interactive Weather Map New forecast layout! Learn more

10-Day Weather Forecast

Advertisements
Track Severe Weather on mobile